sensor_id;sensor_type;location;lat;lon;timestamp;pressure;altitude;pressure_sealevel;temperature;humidity
66703;BME280;60933;46.398;-63.798;2023-09-07T00:00:15;100602.16;;;17.94;100.00
66703;BME280;60933;46.398;-63.798;2023-09-07T00:02:41;100602.94;;;17.96;100.00
66703;BME280;60933;46.398;-63.798;2023-09-07T00:05:08;100599.53;;;17.94;100.00
66703;BME280;60933;46.398;-63.798;2023-09-07T00:07:34;100590.97;;;17.92;100.00
66703;BME280;60933;46.398;-63.798;2023-09-07T00:10:01;100590.03;;;17.93;100.00
66703;BME280;60933;46.398;-63.798;2023-09-07T00:12:27;100583.22;;;17.90;100.00
66703;BME280;60933;46.398;-63.798;2023-09-07T00:14:54;100585.91;;;17.88;100.00
66703;BME280;60933;46.398;-63.798;2023-09-07T00:17:21;100584.22;;;17.87;100.00
66703;BME280;60933;46.398;-63.798;2023-09-07T00:19:47;100577.53;;;17.83;100.00
66703;BME280;60933;46.398;-63.798;2023-09-07T00:22:17;100578.81;;;17.76;100.00
66703;BME280;60933;46.398;-63.798;2023-09-07T00:24:44;100581.41;;;17.76;100.00
66703;BME280;60933;46.398;-63.798;2023-09-07T00:27:10;100594.28;;;17.79;100.00
66703;BME280;60933;46.398;-63.798;2023-09-07T00:29:38;100589.97;;;17.78;100.00
66703;BME280;60933;46.398;-63.798;2023-09-07T00:32:04;100585.97;;;17.72;100.00
66703;BME280;60933;46.398;-63.798;2023-09-07T00:34:31;100598.09;;;17.74;100.00
66703;BME280;60933;46.398;-63.798;2023-09-07T00:36:57;100579.06;;;17.71;100.00
66703;BME280;60933;46.398;-63.798;2023-09-07T00:39:23;100580.09;;;17.69;100.00
66703;BME280;60933;46.398;-63.798;2023-09-07T00:41:49;100571.66;;;17.64;100.00
66703;BME280;60933;46.398;-63.798;2023-09-07T00:44:15;100582.09;;;17.64;100.00
66703;BME280;60933;46.398;-63.798;2023-09-07T00:46:42;100574.63;;;17.58;100.00
66703;BME280;60933;46.398;-63.798;2023-09-07T00:49:11;100571.25;;;17.55;100.00
66703;BME280;60933;46.398;-63.798;2023-09-07T00:51:38;100576.41;;;17.57;100.00
66703;BME280;60933;46.398;-63.798;2023-09-07T00:54:04;100572.88;;;17.58;100.00
66703;BME280;60933;46.398;-63.798;2023-09-07T00:56:30;100575.56;;;17.56;100.00
66703;BME280;60933;46.398;-63.798;2023-09-07T00:58:57;100566.13;;;17.54;100.00
66703;BME280;60933;46.398;-63.798;2023-09-07T01:01:25;100563.53;;;17.54;100.00
66703;BME280;60933;46.398;-63.798;2023-09-07T01:03:52;100565.22;;;17.55;100.00
66703;BME280;60933;46.398;-63.798;2023-09-07T01:06:32;100576.56;;;17.54;100.00
66703;BME280;60933;46.398;-63.798;2023-09-07T01:09:06;100574.06;;;17.52;100.00
66703;BME280;60933;46.398;-63.798;2023-09-07T01:11:37;100582.81;;;17.51;100.00
66703;BME280;60933;46.398;-63.798;2023-09-07T01:14:03;100585.50;;;17.50;100.00
66703;BME280;60933;46.398;-63.798;2023-09-07T01:16:30;100587.25;;;17.49;100.00
66703;BME280;60933;46.398;-63.798;2023-09-07T01:19:00;100581.13;;;17.50;100.00
66703;BME280;60933;46.398;-63.798;2023-09-07T01:21:37;100576.81;;;17.49;100.00
66703;BME280;60933;46.398;-63.798;2023-09-07T01:24:08;100571.59;;;17.49;100.00
66703;BME280;60933;46.398;-63.798;2023-09-07T01:26:36;100564.53;;;17.51;100.00
66703;BME280;60933;46.398;-63.798;2023-09-07T01:29:05;100560.25;;;17.50;100.00
66703;BME280;60933;46.398;-63.798;2023-09-07T01:31:35;100561.94;;;17.51;100.00
66703;BME280;60933;46.398;-63.798;2023-09-07T01:34:02;100553.19;;;17.52;100.00
66703;BME280;60933;46.398;-63.798;2023-09-07T01:36:28;100561.94;;;17.51;100.00
66703;BME280;60933;46.398;-63.798;2023-09-07T01:38:54;100557.72;;;17.49;100.00
66703;BME280;60933;46.398;-63.798;2023-09-07T01:41:20;100561.16;;;17.49;100.00
66703;BME280;60933;46.398;-63.798;2023-09-07T01:43:46;100559.47;;;17.48;100.00
66703;BME280;60933;46.398;-63.798;2023-09-07T01:46:13;100565.47;;;17.50;100.00
66703;BME280;60933;46.398;-63.798;2023-09-07T01:48:39;100560.25;;;17.50;100.00
66703;BME280;60933;46.398;-63.798;2023-09-07T01:51:05;100559.47;;;17.48;100.00
66703;BME280;60933;46.398;-63.798;2023-09-07T01:53:31;100560.41;;;17.47;100.00
66703;BME280;60933;46.398;-63.798;2023-09-07T01:55:57;100547.47;;;17.46;100.00
66703;BME280;60933;46.398;-63.798;2023-09-07T01:58:25;100551.75;;;17.47;100.00
66703;BME280;60933;46.398;-63.798;2023-09-07T02:00:56;100555.19;;;17.47;100.00
66703;BME280;60933;46.398;-63.798;2023-09-07T02:03:23;100550.16;;;17.44;100.00
66703;BME280;60933;46.398;-63.798;2023-09-07T02:05:49;100550.25;;;17.43;100.00
66703;BME280;60933;46.398;-63.798;2023-09-07T02:08:15;100552.09;;;17.40;100.00
66703;BME280;60933;46.398;-63.798;2023-09-07T02:10:41;100554.06;;;17.37;100.00
66703;BME280;60933;46.398;-63.798;2023-09-07T02:13:07;100559.94;;;17.40;100.00
66703;BME280;60933;46.398;-63.798;2023-09-07T02:15:34;100556.47;;;17.40;100.00
66703;BME280;60933;46.398;-63.798;2023-09-07T02:18:02;100565.16;;;17.40;100.00
66703;BME280;60933;46.398;-63.798;2023-09-07T02:20:30;100563.47;;;17.39;100.00
66703;BME280;60933;46.398;-63.798;2023-09-07T02:22:56;100556.81;;;17.34;100.00
66703;BME280;60933;46.398;-63.798;2023-09-07T02:25:22;100554.22;;;17.34;100.00
66703;BME280;60933;46.398;-63.798;2023-09-07T02:27:48;100536.56;;;17.23;100.00
66703;BME280;60933;46.398;-63.798;2023-09-07T02:30:14;100556.06;;;17.32;100.00
66703;BME280;60933;46.398;-63.798;2023-09-07T02:32:42;100549.00;;;17.34;100.00
66703;BME280;60933;46.398;-63.798;2023-09-07T02:35:09;100537.78;;;17.32;100.00
66703;BME280;60933;46.398;-63.798;2023-09-07T02:37:36;100532.56;;;17.32;100.00
66703;BME280;60933;46.398;-63.798;2023-09-07T02:40:02;100531.00;;;17.29;100.00
66703;BME280;60933;46.398;-63.798;2023-09-07T02:42:33;100532.78;;;17.29;100.00
66703;BME280;60933;46.398;-63.798;2023-09-07T02:44:59;100538.91;;;17.28;100.00
66703;BME280;60933;46.398;-63.798;2023-09-07T02:47:25;100538.91;;;17.28;100.00
66703;BME280;60933;46.398;-63.798;2023-09-07T02:49:51;100543.09;;;17.30;100.00
66703;BME280;60933;46.398;-63.798;2023-09-07T02:52:17;100537.88;;;17.30;100.00
66703;BME280;60933;46.398;-63.798;2023-09-07T02:54:44;100533.53;;;17.31;100.00
66703;BME280;60933;46.398;-63.798;2023-09-07T02:57:10;100532.56;;;17.32;100.00
66703;BME280;60933;46.398;-63.798;2023-09-07T02:59:36;100536.88;;;17.33;100.00
66703;BME280;60933;46.398;-63.798;2023-09-07T03:02:02;100535.19;;;17.32;100.00
66703;BME280;60933;46.398;-63.798;2023-09-07T03:04:28;100542.19;;;17.31;100.00
66703;BME280;60933;46.398;-63.798;2023-09-07T03:06:54;100537.88;;;17.30;100.00
66703;BME280;60933;46.398;-63.798;2023-09-07T03:09:20;100531.00;;;17.29;100.00
66703;BME280;60933;46.398;-63.798;2023-09-07T03:11:46;100531.91;;;17.28;100.00
66703;BME280;60933;46.398;-63.798;2023-09-07T03:14:12;100535.38;;;17.29;100.00
66703;BME280;60933;46.398;-63.798;2023-09-07T03:16:38;100528.38;;;17.29;100.00
66703;BME280;60933;46.398;-63.798;2023-09-07T03:19:04;100531.09;;;17.28;100.00
66703;BME280;60933;46.398;-63.798;2023-09-07T03:21:30;100533.84;;;17.24;100.00
66703;BME280;60933;46.398;-63.798;2023-09-07T03:23:57;100526.13;;;17.23;100.00
66703;BME280;60933;46.398;-63.798;2023-09-07T03:26:23;100520.91;;;17.23;100.00
66703;BME280;60933;46.398;-63.798;2023-09-07T03:28:50;100517.47;;;17.22;100.00
66703;BME280;60933;46.398;-63.798;2023-09-07T03:31:17;100519.47;;;17.17;100.00
66703;BME280;60933;46.398;-63.798;2023-09-07T03:33:43;100527.97;;;17.21;100.00
66703;BME280;60933;46.398;-63.798;2023-09-07T03:36:09;100534.03;;;17.21;100.00
66703;BME280;60933;46.398;-63.798;2023-09-07T03:38:36;100522.75;;;17.21;100.00
66703;BME280;60933;46.398;-63.798;2023-09-07T03:41:02;100518.81;;;17.14;100.00
66703;BME280;60933;46.398;-63.798;2023-09-07T03:43:28;100517.63;;;17.19;100.00
66703;BME280;60933;46.398;-63.798;2023-09-07T03:45:56;100522.03;;;17.19;100.00
66703;BME280;60933;46.398;-63.798;2023-09-07T03:48:22;100522.94;;;17.18;100.00
66703;BME280;60933;46.398;-63.798;2023-09-07T03:50:48;100520.44;;;17.16;100.00
66703;BME280;60933;46.398;-63.798;2023-09-07T03:53:15;100529.00;;;17.18;100.00
66703;BME280;60933;46.398;-63.798;2023-09-07T03:55:42;100514.25;;;17.17;100.00
66703;BME280;60933;46.398;-63.798;2023-09-07T03:58:11;100517.81;;;17.16;100.00
66703;BME280;60933;46.398;-63.798;2023-09-07T04:00:41;100515.22;;;17.16;100.00
66703;BME280;60933;46.398;-63.798;2023-09-07T04:03:08;100509.22;;;17.14;100.00
66703;BME280;60933;46.398;-63.798;2023-09-07T04:05:36;100506.44;;;17.17;100.00
66703;BME280;60933;46.398;-63.798;2023-09-07T04:08:03;100498.44;;;17.20;100.00
66703;BME280;60933;46.398;-63.798;2023-09-07T04:10:29;100488.94;;;17.19;100.00
66703;BME280;60933;46.398;-63.798;2023-09-07T04:12:55;100494.16;;;17.19;100.00
66703;BME280;60933;46.398;-63.798;2023-09-07T04:15:21;100502.16;;;17.16;100.00
66703;BME280;60933;46.398;-63.798;2023-09-07T04:17:50;100501.22;;;17.17;100.00
66703;BME280;60933;46.398;-63.798;2023-09-07T04:20:16;100502.91;;;17.18;100.00
66703;BME280;60933;46.398;-63.798;2023-09-07T04:22:42;100488.44;;;17.13;100.00
66703;BME280;60933;46.398;-63.798;2023-09-07T04:25:09;100505.50;;;17.18;100.00
66703;BME280;60933;46.398;-63.798;2023-09-07T04:27:35;100507.28;;;17.18;100.00
66703;BME280;60933;46.398;-63.798;2023-09-07T04:30:01;100505.50;;;17.18;100.00
66703;BME280;60933;46.398;-63.798;2023-09-07T04:32:27;100499.47;;;17.18;100.00
66703;BME280;60933;46.398;-63.798;2023-09-07T04:34:56;100493.13;;;17.22;100.00
66703;BME280;60933;46.398;-63.798;2023-09-07T04:37:25;100500.91;;;17.23;100.00
66703;BME280;60933;46.398;-63.798;2023-09-07T04:39:52;100503.41;;;17.25;100.00
66703;BME280;60933;46.398;-63.798;2023-09-07T04:42:19;100504.34;;;17.24;100.00
66703;BME280;60933;46.398;-63.798;2023-09-07T04:44:46;100500.03;;;17.23;100.00
66703;BME280;60933;46.398;-63.798;2023-09-07T04:47:13;100493.06;;;17.23;100.00
66703;BME280;60933;46.398;-63.798;2023-09-07T04:49:41;100497.34;;;17.24;100.00
66703;BME280;60933;46.398;-63.798;2023-09-07T04:52:07;100499.22;;;17.22;100.00
66703;BME280;60933;46.398;-63.798;2023-09-07T04:54:35;100505.34;;;17.21;100.00
66703;BME280;60933;46.398;-63.798;2023-09-07T04:57:01;100512.31;;;17.21;100.00
66703;BME280;60933;46.398;-63.798;2023-09-07T04:59:27;100505.50;;;17.18;100.00
66703;BME280;60933;46.398;-63.798;2023-09-07T05:01:53;100506.28;;;17.20;100.00
66703;BME280;60933;46.398;-63.798;2023-09-07T05:04:20;100508.97;;;17.19;100.00
66703;BME280;60933;46.398;-63.798;2023-09-07T05:06:46;100503.66;;;17.20;100.00
66703;BME280;60933;46.398;-63.798;2023-09-07T05:09:12;100496.00;;;17.17;100.00
66703;BME280;60933;46.398;-63.798;2023-09-07T05:11:38;100489.88;;;17.18;100.00
66703;BME280;60933;46.398;-63.798;2023-09-07T05:14:04;100501.16;;;17.19;100.00
66703;BME280;60933;46.398;-63.798;2023-09-07T05:16:30;100490.78;;;17.17;100.00
66703;BME280;60933;46.398;-63.798;2023-09-07T05:18:56;100491.56;;;17.19;100.00
66703;BME280;60933;46.398;-63.798;2023-09-07T05:21:22;100481.38;;;17.15;100.00
66703;BME280;60933;46.398;-63.798;2023-09-07T05:23:48;100497.53;;;17.21;100.00
66703;BME280;60933;46.398;-63.798;2023-09-07T05:26:14;100495.84;;;17.20;100.00
66703;BME280;60933;46.398;-63.798;2023-09-07T05:28:40;100495.00;;;17.20;100.00
66703;BME280;60933;46.398;-63.798;2023-09-07T05:31:09;100486.59;;;17.15;100.00
66703;BME280;60933;46.398;-63.798;2023-09-07T05:33:35;100491.75;;;17.16;100.00
66703;BME280;60933;46.398;-63.798;2023-09-07T05:36:01;100503.91;;;17.16;100.00
66703;BME280;60933;46.398;-63.798;2023-09-07T05:38:28;100496.25;;;17.13;100.00
66703;BME280;60933;46.398;-63.798;2023-09-07T05:40:54;100497.78;;;17.17;100.00
66703;BME280;60933;46.398;-63.798;2023-09-07T05:43:20;100505.50;;;17.18;100.00
66703;BME280;60933;46.398;-63.798;2023-09-07T05:45:46;100500.22;;;17.20;100.00
66703;BME280;60933;46.398;-63.798;2023-09-07T05:48:13;100500.22;;;17.20;100.00
66703;BME280;60933;46.398;-63.798;2023-09-07T05:50:42;100497.53;;;17.21;100.00
66703;BME280;60933;46.398;-63.798;2023-09-07T05:53:09;100495.84;;;17.20;100.00
66703;BME280;60933;46.398;-63.798;2023-09-07T05:55:35;100496.75;;;17.19;100.00
66703;BME280;60933;46.398;-63.798;2023-09-07T05:58:05;100505.25;;;17.23;100.00
66703;BME280;60933;46.398;-63.798;2023-09-07T06:00:31;100498.34;;;17.22;100.00
66703;BME280;60933;46.398;-63.798;2023-09-07T06:02:57;100503.66;;;17.20;100.00
66703;BME280;60933;46.398;-63.798;2023-09-07T06:05:23;100498.53;;;17.19;100.00
66703;BME280;60933;46.398;-63.798;2023-09-07T06:07:50;100499.28;;;17.21;100.00
66703;BME280;60933;46.398;-63.798;2023-09-07T06:10:16;100493.22;;;17.20;100.00
66703;BME280;60933;46.398;-63.798;2023-09-07T06:12:43;100503.00;;;17.17;100.00
66703;BME280;60933;46.398;-63.798;2023-09-07T06:15:09;100503.00;;;17.17;100.00
66703;BME280;60933;46.398;-63.798;2023-09-07T06:17:36;100505.44;;;17.20;100.00
66703;BME280;60933;46.398;-63.798;2023-09-07T06:20:02;100495.84;;;17.20;100.00
66703;BME280;60933;46.398;-63.798;2023-09-07T06:22:29;100496.88;;;17.18;100.00
66703;BME280;60933;46.398;-63.798;2023-09-07T06:24:55;100497.78;;;17.17;100.00
66703;BME280;60933;46.398;-63.798;2023-09-07T06:27:21;100491.81;;;17.15;100.00
66703;BME280;60933;46.398;-63.798;2023-09-07T06:29:47;100504.84;;;17.15;100.00
66703;BME280;60933;46.398;-63.798;2023-09-07T06:32:13;100495.19;;;17.17;100.00
66703;BME280;60933;46.398;-63.798;2023-09-07T06:34:39;100497.94;;;17.14;100.00
66703;BME280;60933;46.398;-63.798;2023-09-07T06:37:06;100497.94;;;17.14;100.00
66703;BME280;60933;46.398;-63.798;2023-09-07T06:39:32;100495.44;;;17.12;100.00
66703;BME280;60933;46.398;-63.798;2023-09-07T06:41:58;100493.84;;;17.09;100.00
66703;BME280;60933;46.398;-63.798;2023-09-07T06:44:24;100492.25;;;17.07;100.00
66703;BME280;60933;46.398;-63.798;2023-09-07T06:46:50;100484.59;;;17.04;100.00
66703;BME280;60933;46.398;-63.798;2023-09-07T06:49:17;100491.66;;;17.02;100.00
66703;BME280;60933;46.398;-63.798;2023-09-07T06:51:43;100486.44;;;17.02;100.00
66703;BME280;60933;46.398;-63.798;2023-09-07T06:54:09;100483.00;;;17.01;100.00
66703;BME280;60933;46.398;-63.798;2023-09-07T06:56:35;100482.25;;;16.99;100.00
66703;BME280;60933;46.398;-63.798;2023-09-07T06:59:01;100473.59;;;16.99;100.00
66703;BME280;60933;46.398;-63.798;2023-09-07T07:01:27;100467.50;;;16.98;100.00
66703;BME280;60933;46.398;-63.798;2023-09-07T07:03:53;100477.28;;;16.95;100.00
66703;BME280;60933;46.398;-63.798;2023-09-07T07:06:19;100467.78;;;16.93;100.00
66703;BME280;60933;46.398;-63.798;2023-09-07T07:08:46;100473.84;;;16.94;100.00
66703;BME280;60933;46.398;-63.798;2023-09-07T07:11:12;100471.34;;;16.91;100.00
66703;BME280;60933;46.398;-63.798;2023-09-07T07:13:38;100462.81;;;16.89;100.00
66703;BME280;60933;46.398;-63.798;2023-09-07T07:16:04;100466.41;;;16.86;100.00
66703;BME280;60933;46.398;-63.798;2023-09-07T07:18:31;100463.88;;;16.85;100.00
66703;BME280;60933;46.398;-63.798;2023-09-07T07:20:57;100469.09;;;16.85;100.00
66703;BME280;60933;46.398;-63.798;2023-09-07T07:23:23;100478.69;;;16.84;100.00
66703;BME280;60933;46.398;-63.798;2023-09-07T07:25:49;100471.81;;;16.83;100.00
66703;BME280;60933;46.398;-63.798;2023-09-07T07:28:16;100480.53;;;16.82;100.00
66703;BME280;60933;46.398;-63.798;2023-09-07T07:30:42;100458.34;;;16.75;100.00
66703;BME280;60933;46.398;-63.798;2023-09-07T07:33:09;100467.41;;;16.84;100.00
66703;BME280;60933;46.398;-63.798;2023-09-07T07:35:37;100476.09;;;16.84;100.00
66703;BME280;60933;46.398;-63.798;2023-09-07T07:38:04;100475.34;;;16.82;100.00
66703;BME280;60933;46.398;-63.798;2023-09-07T07:40:31;100475.34;;;16.82;100.00
66703;BME280;60933;46.398;-63.798;2023-09-07T07:42:57;100475.50;;;16.79;100.00
66703;BME280;60933;46.398;-63.798;2023-09-07T07:45:23;100474.00;;;16.75;100.00
66703;BME280;60933;46.398;-63.798;2023-09-07T07:47:49;100485.91;;;16.79;100.00
66703;BME280;60933;46.398;-63.798;2023-09-07T07:50:16;100488.53;;;16.79;100.00
66703;BME280;60933;46.398;-63.798;2023-09-07T07:52:43;100477.25;;;16.78;100.00
66703;BME280;60933;46.398;-63.798;2023-09-07T07:55:10;100475.50;;;16.79;100.00
66703;BME280;60933;46.398;-63.798;2023-09-07T07:57:36;100466.94;;;16.77;100.00
66703;BME280;60933;46.398;-63.798;2023-09-07T08:00:04;100475.69;;;16.76;100.00
66703;BME280;60933;46.398;-63.798;2023-09-07T08:02:30;100467.00;;;16.75;100.00
66703;BME280;60933;46.398;-63.798;2023-09-07T08:04:57;100468.78;;;16.75;100.00
66703;BME280;60933;46.398;-63.798;2023-09-07T08:07:24;100466.25;;;16.73;100.00
66703;BME280;60933;46.398;-63.798;2023-09-07T08:09:50;100458.34;;;16.75;100.00
66703;BME280;60933;46.398;-63.798;2023-09-07T08:12:17;100460.28;;;16.71;100.00
66703;BME280;60933;46.398;-63.798;2023-09-07T08:14:43;100455.91;;;16.72;100.00
66703;BME280;60933;46.398;-63.798;2023-09-07T08:17:09;100458.50;;;16.72;100.00
66703;BME280;60933;46.398;-63.798;2023-09-07T08:19:35;100455.22;;;16.68;100.00
66703;BME280;60933;46.398;-63.798;2023-09-07T08:22:04;100460.38;;;16.70;100.00
66703;BME280;60933;46.398;-63.798;2023-09-07T08:24:31;100461.31;;;16.69;100.00
66703;BME280;60933;46.398;-63.798;2023-09-07T08:26:57;100457.16;;;16.65;100.00
66703;BME280;60933;46.398;-63.798;2023-09-07T08:29:26;100461.47;;;16.66;100.00
66703;BME280;60933;46.398;-63.798;2023-09-07T08:31:53;100462.38;;;16.65;100.00
66703;BME280;60933;46.398;-63.798;2023-09-07T08:34:20;100465.91;;;16.64;100.00
66703;BME280;60933;46.398;-63.798;2023-09-07T08:36:48;100465.91;;;16.64;100.00
66703;BME280;60933;46.398;-63.798;2023-09-07T08:39:16;100472.13;;;16.61;100.00
66703;BME280;60933;46.398;-63.798;2023-09-07T08:41:43;100471.31;;;16.60;100.00
66703;BME280;60933;46.398;-63.798;2023-09-07T08:44:10;100468.75;;;16.59;100.00
66703;BME280;60933;46.398;-63.798;2023-09-07T08:46:37;100465.31;;;16.58;100.00
66703;BME280;60933;46.398;-63.798;2023-09-07T08:49:03;100478.19;;;16.61;100.00
66703;BME280;60933;46.398;-63.798;2023-09-07T08:51:31;100467.78;;;16.61;100.00
66703;BME280;60933;46.398;-63.798;2023-09-07T08:53:57;100474.59;;;16.64;100.00
66703;BME280;60933;46.398;-63.798;2023-09-07T08:56:24;100479.03;;;16.62;100.00
66703;BME280;60933;46.398;-63.798;2023-09-07T08:58:51;100473.72;;;16.64;100.00
66703;BME280;60933;46.398;-63.798;2023-09-07T09:01:19;100484.16;;;16.64;100.00
66703;BME280;60933;46.398;-63.798;2023-09-07T09:03:51;100487.69;;;16.63;100.00
66703;BME280;60933;46.398;-63.798;2023-09-07T09:06:19;100494.66;;;16.62;100.00
66703;BME280;60933;46.398;-63.798;2023-09-07T09:08:47;100489.44;;;16.62;100.00
66703;BME280;60933;46.398;-63.798;2023-09-07T09:11:16;100482.66;;;16.59;100.00
66703;BME280;60933;46.398;-63.798;2023-09-07T09:13:42;100490.63;;;16.56;100.00
66703;BME280;60933;46.398;-63.798;2023-09-07T09:16:09;100485.59;;;16.53;100.00
66703;BME280;60933;46.398;-63.798;2023-09-07T09:18:36;100490.81;;;16.53;100.00
66703;BME280;60933;46.398;-63.798;2023-09-07T09:21:03;100478.84;;;16.49;100.00
66703;BME280;60933;46.398;-63.798;2023-09-07T09:23:35;100491.13;;;16.47;100.00
66703;BME280;60933;46.398;-63.798;2023-09-07T09:26:04;100478.00;;;16.49;100.00
66703;BME280;60933;46.398;-63.798;2023-09-07T09:28:34;100485.06;;;16.46;100.00
66703;BME280;60933;46.398;-63.798;2023-09-07T09:31:02;100498.09;;;16.46;100.00
66703;BME280;60933;46.398;-63.798;2023-09-07T09:33:31;100498.09;;;16.46;100.00
66703;BME280;60933;46.398;-63.798;2023-09-07T09:35:57;100507.59;;;16.48;100.00
66703;BME280;60933;46.398;-63.798;2023-09-07T09:38:24;100500.59;;;16.48;100.00
66703;BME280;60933;46.398;-63.798;2023-09-07T09:40:51;100500.59;;;16.48;100.00
66703;BME280;60933;46.398;-63.798;2023-09-07T09:43:20;100495.34;;;16.50;100.00
66703;BME280;60933;46.398;-63.798;2023-09-07T09:45:48;100500.53;;;16.50;100.00
66703;BME280;60933;46.398;-63.798;2023-09-07T09:48:16;100497.09;;;16.49;100.00
66703;BME280;60933;46.398;-63.798;2023-09-07T09:50:46;100497.84;;;16.51;100.00
66703;BME280;60933;46.398;-63.798;2023-09-07T09:53:12;100498.75;;;16.50;100.00
66703;BME280;60933;46.398;-63.798;2023-09-07T09:55:46;100504.66;;;16.54;100.00
66703;BME280;60933;46.398;-63.798;2023-09-07T09:58:16;100504.75;;;16.52;100.00
66703;BME280;60933;46.398;-63.798;2023-09-07T10:00:48;100507.34;;;16.52;100.00
66703;BME280;60933;46.398;-63.798;2023-09-07T10:03:27;100516.84;;;16.53;100.00
66703;BME280;60933;46.398;-63.798;2023-09-07T10:05:55;100519.47;;;16.53;100.00
66703;BME280;60933;46.398;-63.798;2023-09-07T10:08:22;100514.06;;;16.56;100.00
66703;BME280;60933;46.398;-63.798;2023-09-07T10:10:54;100515.66;;;16.59;100.00
66703;BME280;60933;46.398;-63.798;2023-09-07T10:13:30;100506.00;;;16.61;100.00
66703;BME280;60933;46.398;-63.798;2023-09-07T10:16:01;100506.78;;;16.63;100.00
66703;BME280;60933;46.398;-63.798;2023-09-07T10:18:37;100520.56;;;16.65;100.00
66703;BME280;60933;46.398;-63.798;2023-09-07T10:21:04;100513.56;;;16.66;100.00
66703;BME280;60933;46.398;-63.798;2023-09-07T10:23:44;100529.13;;;16.67;100.00
66703;BME280;60933;46.398;-63.798;2023-09-07T10:26:15;100528.19;;;16.68;100.00
66703;BME280;60933;46.398;-63.798;2023-09-07T10:28:43;100537.81;;;16.68;100.00
66703;BME280;60933;46.398;-63.798;2023-09-07T10:31:18;100536.88;;;16.69;100.00
66703;BME280;60933;46.398;-63.798;2023-09-07T10:33:45;100550.91;;;16.66;100.00
66703;BME280;60933;46.398;-63.798;2023-09-07T10:36:27;100544.09;;;16.64;100.00
66703;BME280;60933;46.398;-63.798;2023-09-07T10:38:56;100545.19;;;16.59;100.00
66703;BME280;60933;46.398;-63.798;2023-09-07T10:41:22;100538.38;;;16.57;100.00
66703;BME280;60933;46.398;-63.798;2023-09-07T10:43:55;100533.06;;;16.58;100.00
66703;BME280;60933;46.398;-63.798;2023-09-07T10:46:23;100541.91;;;16.56;100.00
66703;BME280;60933;46.398;-63.798;2023-09-07T10:48:50;100538.38;;;16.57;100.00
66703;BME280;60933;46.398;-63.798;2023-09-07T10:51:20;100536.69;;;16.56;100.00
66703;BME280;60933;46.398;-63.798;2023-09-07T10:53:46;100535.69;;;16.58;100.00
66703;BME280;60933;46.398;-63.798;2023-09-07T10:56:12;100524.91;;;16.49;100.00
66703;BME280;60933;46.398;-63.798;2023-09-07T10:58:39;100547.78;;;16.59;100.00
66703;BME280;60933;46.398;-63.798;2023-09-07T11:01:08;100542.56;;;16.59;100.00
66703;BME280;60933;46.398;-63.798;2023-09-07T11:03:37;100553.00;;;16.59;100.00
66703;BME280;60933;46.398;-63.798;2023-09-07T11:06:10;100556.53;;;16.58;100.00
66703;BME280;60933;46.398;-63.798;2023-09-07T11:08:37;100555.50;;;16.61;100.00
66703;BME280;60933;46.398;-63.798;2023-09-07T11:11:04;100547.44;;;16.66;100.00
66703;BME280;60933;46.398;-63.798;2023-09-07T11:13:31;100551.59;;;16.70;100.00
66703;BME280;60933;46.398;-63.798;2023-09-07T11:15:58;100555.63;;;16.75;100.00
66703;BME280;60933;46.398;-63.798;2023-09-07T11:18:26;100561.75;;;16.74;100.00
66703;BME280;60933;46.398;-63.798;2023-09-07T11:20:53;100569.56;;;16.74;100.00
66703;BME280;60933;46.398;-63.798;2023-09-07T11:23:20;100569.25;;;16.81;100.00
66703;BME280;60933;46.398;-63.798;2023-09-07T11:25:48;100563.63;;;16.88;100.00
66703;BME280;60933;46.398;-63.798;2023-09-07T11:28:16;100564.66;;;17.02;100.00
66703;BME280;60933;46.398;-63.798;2023-09-07T11:30:50;100564.50;;;17.05;100.00
66703;BME280;60933;46.398;-63.798;2023-09-07T11:33:16;100554.59;;;17.12;100.00
66703;BME280;60933;46.398;-63.798;2023-09-07T11:35:43;100561.38;;;17.30;100.00
66703;BME280;60933;46.398;-63.798;2023-09-07T11:38:13;100555.63;;;17.39;100.00
66703;BME280;60933;46.398;-63.798;2023-09-07T11:40:39;100553.78;;;17.42;100.00
66703;BME280;60933;46.398;-63.798;2023-09-07T11:43:08;100563.63;;;17.52;100.00
66703;BME280;60933;46.398;-63.798;2023-09-07T11:45:34;100548.78;;;17.53;100.00
66703;BME280;60933;46.398;-63.798;2023-09-07T11:48:00;100561.09;;;17.51;100.00
66703;BME280;60933;46.398;-63.798;2023-09-07T11:50:26;100547.97;;;17.52;100.00
66703;BME280;60933;46.398;-63.798;2023-09-07T11:52:56;100544.69;;;17.49;100.00
66703;BME280;60933;46.398;-63.798;2023-09-07T11:55:22;100569.84;;;17.50;100.00
66703;BME280;60933;46.398;-63.798;2023-09-07T11:57:48;100566.31;;;17.51;100.00
66703;BME280;60933;46.398;-63.798;2023-09-07T12:00:15;100575.91;;;17.50;100.00
66703;BME280;60933;46.398;-63.798;2023-09-07T12:02:41;100585.16;;;17.56;100.00
66703;BME280;60933;46.398;-63.798;2023-09-07T12:05:08;100586.09;;;17.55;100.00
66703;BME280;60933;46.398;-63.798;2023-09-07T12:07:35;100582.66;;;17.54;100.00
66703;BME280;60933;46.398;-63.798;2023-09-07T12:10:02;100583.38;;;17.56;100.00
66703;BME280;60933;46.398;-63.798;2023-09-07T12:12:28;100582.66;;;17.54;100.00
66703;BME280;60933;46.398;-63.798;2023-09-07T12:14:54;100567.97;;;17.52;100.00
66703;BME280;60933;46.398;-63.798;2023-09-07T12:17:22;100583.97;;;17.62;100.00
66703;BME280;60933;46.398;-63.798;2023-09-07T12:19:50;100584.72;;;17.64;100.00